createdAt,value
2022-11-10T00:02:09.796Z,26.75
2022-11-10T00:04:55.160Z,24.60
2022-11-10T00:07:41.302Z,23.80
2022-11-10T00:10:26.931Z,26.85
2022-11-10T00:13:12.363Z,30.48
2022-11-10T00:16:23.949Z,23.52
2022-11-10T00:19:09.519Z,25.10
2022-11-10T00:21:55.453Z,21.10
2022-11-10T00:24:40.772Z,22.08
2022-11-10T00:27:26.088Z,23.38
2022-11-10T00:30:11.759Z,19.95
2022-11-10T00:32:57.118Z,23.60
2022-11-10T00:35:42.360Z,20.10
2022-11-10T00:38:27.956Z,23.05
2022-11-10T00:41:13.267Z,20.30
2022-11-10T00:43:58.962Z,18.60
2022-11-10T00:46:44.396Z,20.42
2022-11-10T00:49:29.951Z,21.77
2022-11-10T00:52:15.210Z,20.13
2022-11-10T00:55:00.620Z,20.45
2022-11-10T00:57:45.973Z,20.70
2022-11-10T01:00:31.511Z,21.20
2022-11-10T01:03:18.319Z,20.92
2022-11-10T01:06:09.148Z,22.20
2022-11-10T01:08:54.468Z,19.27
2022-11-10T01:11:39.914Z,24.00
2022-11-10T01:14:25.037Z,21.38
2022-11-10T01:17:10.368Z,19.63
2022-11-10T01:19:56.232Z,22.73
2022-11-10T01:22:41.974Z,22.08
2022-11-10T01:25:27.088Z,20.63
2022-11-10T01:28:12.362Z,25.05
2022-11-10T01:31:03.758Z,29.30
2022-11-10T01:33:49.452Z,23.13
2022-11-10T01:36:34.628Z,30.40
2022-11-10T01:39:19.984Z,30.00
2022-11-10T01:42:05.427Z,28.33
2022-11-10T01:45:24.723Z,24.52
2022-11-10T01:48:15.003Z,21.25
2022-11-10T01:51:06.123Z,22.58
2022-11-10T01:53:59.241Z,25.83
2022-11-10T01:56:48.611Z,24.85
2022-11-10T01:59:40.049Z,22.90
2022-11-10T02:02:48.843Z,19.80
2022-11-10T02:05:34.654Z,21.95
2022-11-10T02:08:21.483Z,21.55
2022-11-10T02:11:06.877Z,23.75
2022-11-10T02:13:53.310Z,21.40
2022-11-10T02:16:39.923Z,18.67
2022-11-10T02:19:27.108Z,19.63
2022-11-10T02:22:12.603Z,22.17
2022-11-10T02:24:58.442Z,19.52
2022-11-10T02:27:43.699Z,19.15
2022-11-10T02:30:29.266Z,17.55
2022-11-10T02:33:17.852Z,18.98
2022-11-10T02:36:03.707Z,19.08
2022-11-10T02:38:49.103Z,21.83
2022-11-10T02:41:34.456Z,19.92
2022-11-10T02:44:20.196Z,19.00
2022-11-10T02:47:06.305Z,19.58
2022-11-10T02:49:51.281Z,21.73
2022-11-10T02:52:36.816Z,23.45
2022-11-10T02:55:22.108Z,20.15
2022-11-10T02:58:07.592Z,18.42
2022-11-10T03:00:53.243Z,22.27
2022-11-10T03:03:38.514Z,21.50
2022-11-10T03:06:23.859Z,19.67
2022-11-10T03:09:09.143Z,20.13
2022-11-10T03:11:54.542Z,18.65
2022-11-10T03:14:39.979Z,18.90
2022-11-10T03:17:25.665Z,23.25
2022-11-10T03:20:11.044Z,26.35
2022-11-10T03:23:01.915Z,24.15
2022-11-10T03:25:47.283Z,22.98
2022-11-10T03:28:32.861Z,23.95
2022-11-10T03:31:17.914Z,28.02
2022-11-10T03:34:03.303Z,25.38
2022-11-10T03:36:48.704Z,26.52
2022-11-10T03:39:34.603Z,36.42
2022-11-10T03:42:19.997Z,33.10
2022-11-10T03:45:05.733Z,30.73
2022-11-10T03:47:51.223Z,27.58
2022-11-10T03:50:36.926Z,35.13
2022-11-10T03:53:22.665Z,26.35
2022-11-10T03:56:08.665Z,27.67
2022-11-10T03:58:53.996Z,31.13
2022-11-10T04:01:39.459Z,27.27
2022-11-10T04:04:43.765Z,33.60
2022-11-10T04:07:47.373Z,30.85
2022-11-10T04:10:36.088Z,24.42
2022-11-10T04:13:40.074Z,26.88
2022-11-10T04:16:25.818Z,27.33
2022-11-10T04:19:11.293Z,39.50
2022-11-10T04:21:57.201Z,39.15
2022-11-10T04:24:42.595Z,25.10
2022-11-10T04:27:27.962Z,27.75
2022-11-10T04:30:13.457Z,26.00
2022-11-10T04:32:58.847Z,23.77
2022-11-10T04:35:44.136Z,25.63
2022-11-10T04:38:29.649Z,22.08
2022-11-10T04:41:15.841Z,25.48
2022-11-10T04:44:01.964Z,26.98
2022-11-10T04:46:47.395Z,24.35
2022-11-10T04:49:32.727Z,28.02
2022-11-10T04:52:18.111Z,31.85
2022-11-10T04:55:03.662Z,29.77
2022-11-10T04:57:48.874Z,32.67
2022-11-10T05:00:35.538Z,30.25
2022-11-10T05:03:21.447Z,35.63
2022-11-10T05:06:07.415Z,45.65
2022-11-10T05:08:52.770Z,32.50
2022-11-10T05:11:38.126Z,27.30
2022-11-10T05:14:23.416Z,30.70
2022-11-10T05:17:08.861Z,27.70
2022-11-10T05:19:54.266Z,34.67
2022-11-10T05:22:39.708Z,28.85
2022-11-10T05:25:25.135Z,31.10
2022-11-10T05:28:12.843Z,25.63
2022-11-10T05:30:58.232Z,32.15
2022-11-10T05:33:43.585Z,33.53
2022-11-10T05:36:28.821Z,40.83
2022-11-10T05:39:14.258Z,35.03
2022-11-10T05:41:59.429Z,34.75
2022-11-10T05:44:44.913Z,37.10
2022-11-10T05:47:30.167Z,39.08
2022-11-10T05:50:16.624Z,36.38
2022-11-10T05:53:02.010Z,38.55
2022-11-10T05:55:47.301Z,38.20
2022-11-10T05:58:32.861Z,30.02
2022-11-10T06:01:18.177Z,28.17
2022-11-10T06:04:03.731Z,28.13
2022-11-10T06:06:49.532Z,33.78
2022-11-10T06:09:35.457Z,38.17
2022-11-10T06:12:21.868Z,50.83
2022-11-10T06:15:08.853Z,32.80
2022-11-10T06:17:55.201Z,57.35
2022-11-10T06:20:40.585Z,23.67
2022-11-10T06:23:26.013Z,26.92
2022-11-10T06:26:11.565Z,25.20
2022-11-10T06:28:57.864Z,24.65
2022-11-10T06:31:43.080Z,26.70
2022-11-10T06:34:28.753Z,21.10
2022-11-10T06:37:13.906Z,35.38
2022-11-10T06:39:59.251Z,25.77
2022-11-10T06:42:44.732Z,24.83
2022-11-10T06:45:30.309Z,22.80
2022-11-10T06:48:16.021Z,27.92
2022-11-10T06:51:02.816Z,23.33
2022-11-10T06:53:48.245Z,20.00
2022-11-10T06:56:34.854Z,20.65
2022-11-10T06:59:19.942Z,19.30
2022-11-10T07:02:05.382Z,21.70
2022-11-10T07:04:50.909Z,25.65
2022-11-10T07:07:36.477Z,18.17
2022-11-10T07:10:21.981Z,20.20
2022-11-10T07:13:07.409Z,21.70
2022-11-10T07:15:52.997Z,25.13
2022-11-10T07:18:38.786Z,21.98
2022-11-10T07:21:24.470Z,25.35
2022-11-10T07:24:10.005Z,28.67
2022-11-10T07:26:55.213Z,23.73
2022-11-10T07:29:40.678Z,23.95
2022-11-10T07:32:26.001Z,22.65
2022-11-10T07:35:11.334Z,27.27
2022-11-10T07:37:57.849Z,22.65
2022-11-10T07:40:43.399Z,21.15
2022-11-10T07:43:28.828Z,21.38
2022-11-10T07:46:14.033Z,21.50
2022-11-10T07:48:59.433Z,19.40
2022-11-10T07:51:44.905Z,21.45
2022-11-10T07:54:30.378Z,25.23
2022-11-10T07:57:15.748Z,27.42
2022-11-10T08:00:01.334Z,26.23
2022-11-10T08:02:46.776Z,25.85
2022-11-10T08:05:33.189Z,23.00
2022-11-10T08:08:19.171Z,25.30
2022-11-10T08:11:05.040Z,24.90
2022-11-10T08:13:50.577Z,19.17
2022-11-10T08:16:35.980Z,15.18
2022-11-10T08:19:21.507Z,26.45
2022-11-10T08:22:06.730Z,21.17
2022-11-10T08:24:52.209Z,19.83
2022-11-10T08:27:37.488Z,33.47
2022-11-10T08:30:22.908Z,18.08
2022-11-10T08:33:11.206Z,17.55
2022-11-10T08:35:56.276Z,18.88
2022-11-10T08:38:41.967Z,19.25
2022-11-10T08:41:27.135Z,27.50
2022-11-10T08:44:15.561Z,22.63
2022-11-10T08:47:04.929Z,21.10
2022-11-10T08:49:50.318Z,22.33
2022-11-10T08:52:35.770Z,18.17
2022-11-10T08:55:21.936Z,16.83
2022-11-10T08:58:10.371Z,21.45
2022-11-10T09:00:56.778Z,19.65
2022-11-10T09:03:42.370Z,17.17
2022-11-10T09:06:27.948Z,16.17
2022-11-10T09:09:13.463Z,17.38
2022-11-10T09:11:59.035Z,16.10
2022-11-10T09:14:44.481Z,17.13
2022-11-10T09:17:29.763Z,15.20
2022-11-10T09:20:15.509Z,23.30
2022-11-10T09:23:09.857Z,15.77
2022-11-10T09:25:56.515Z,22.95
2022-11-10T09:28:41.923Z,17.05
2022-11-10T09:31:27.237Z,20.02
2022-11-10T09:34:12.691Z,16.30
2022-11-10T09:36:58.063Z,17.42
2022-11-10T09:39:43.422Z,19.63
2022-11-10T09:42:36.880Z,21.25
2022-11-10T09:45:39.531Z,20.77
2022-11-10T09:48:31.413Z,19.38
2022-11-10T09:51:31.787Z,19.33
2022-11-10T09:54:39.467Z,19.55
2022-11-10T09:57:26.734Z,20.50
2022-11-10T10:00:17.364Z,19.65
2022-11-10T10:03:06.180Z,15.15
2022-11-10T10:06:11.099Z,18.67
2022-11-10T10:09:18.053Z,32.47
2022-11-10T10:12:25.757Z,16.50
2022-11-10T10:15:44.691Z,16.35
2022-11-10T10:18:49.585Z,15.70
2022-11-10T10:21:47.709Z,17.33
2022-11-10T10:24:34.760Z,21.77
2022-11-10T10:27:23.922Z,24.08
2022-11-10T10:30:18.601Z,17.63
2022-11-10T10:33:21.378Z,17.10
2022-11-10T10:36:15.379Z,16.73
2022-11-10T10:39:06.426Z,22.20
2022-11-10T10:41:51.855Z,15.13
2022-11-10T10:44:37.254Z,18.77
2022-11-10T10:47:37.078Z,17.13
2022-11-10T10:50:27.865Z,18.52
2022-11-10T10:53:19.173Z,18.58
2022-11-10T10:56:18.256Z,30.80
2022-11-10T10:59:06.058Z,26.17
2022-11-10T11:01:55.832Z,17.30
2022-11-10T11:04:42.306Z,30.08
2022-11-10T11:07:27.484Z,17.70
2022-11-10T11:10:24.880Z,29.15
2022-11-10T11:13:25.752Z,19.23
2022-11-10T11:16:12.754Z,19.33
2022-11-10T11:18:59.064Z,15.65
2022-11-10T11:22:01.013Z,19.48
2022-11-10T11:25:07.165Z,19.85
2022-11-10T11:28:03.752Z,16.98
2022-11-10T11:31:08.241Z,24.77
2022-11-10T11:34:13.099Z,18.88
2022-11-10T11:37:19.461Z,23.02
2022-11-10T11:40:28.975Z,27.88
2022-11-10T11:43:14.337Z,20.65
2022-11-10T11:46:02.715Z,32.58
2022-11-10T11:48:56.710Z,23.50
2022-11-10T11:52:00.487Z,21.10
2022-11-10T11:55:20.883Z,19.13
2022-11-10T11:58:27.517Z,17.20
2022-11-10T12:01:41.072Z,24.40
2022-11-10T12:04:46.554Z,22.65
2022-11-10T12:08:00.603Z,17.58
2022-11-10T12:11:08.061Z,21.75
2022-11-10T12:14:15.277Z,19.27
2022-11-10T12:17:05.881Z,19.27
2022-11-10T12:20:00.253Z,17.35
2022-11-10T12:22:51.870Z,18.75
2022-11-10T12:26:01.585Z,17.73
2022-11-10T12:28:54.958Z,19.70
2022-11-10T12:31:45.298Z,23.50
2022-11-10T12:34:38.971Z,19.35
2022-11-10T12:37:38.511Z,27.38
2022-11-10T12:40:30.760Z,22.92
2022-11-10T12:43:34.780Z,21.45
2022-11-10T12:46:20.495Z,18.92
2022-11-10T12:49:18.506Z,27.83
2022-11-10T12:52:39.116Z,21.20
2022-11-10T12:55:42.930Z,19.13
2022-11-10T12:58:28.949Z,16.80
2022-11-10T13:01:20.379Z,19.13
2022-11-10T13:04:05.927Z,16.38
2022-11-10T13:06:57.737Z,17.65
2022-11-10T13:09:44.141Z,24.17
2022-11-10T13:12:29.527Z,22.30
2022-11-10T13:15:40.218Z,23.17
2022-11-10T13:18:31.728Z,20.45
2022-11-10T13:21:17.213Z,19.50
2022-11-10T13:24:02.765Z,20.80
2022-11-10T13:26:56.004Z,21.75
2022-11-10T13:29:47.790Z,29.75
2022-11-10T13:32:34.243Z,19.42
2022-11-10T13:35:29.069Z,21.67
2022-11-10T13:38:32.710Z,23.00
2022-11-10T13:41:17.803Z,21.08
2022-11-10T13:44:03.522Z,24.35
2022-11-10T13:47:09.723Z,26.63
2022-11-10T13:50:43.335Z,24.90
2022-11-10T13:53:49.821Z,20.70
2022-11-10T13:56:50.752Z,25.33
2022-11-10T13:59:50.566Z,25.02
2022-11-10T14:02:41.832Z,24.30
2022-11-10T14:05:37.906Z,20.98
2022-11-10T14:08:27.998Z,25.70
2022-11-10T14:14:10.834Z,32.33
2022-11-10T14:16:56.584Z,28.40
2022-11-10T14:19:44.283Z,23.60
2022-11-10T14:22:42.367Z,24.00
2022-11-10T14:25:36.756Z,26.08
2022-11-10T14:28:29.761Z,25.23
2022-11-10T14:31:36.182Z,22.67
2022-11-10T14:34:23.831Z,18.73
2022-11-10T14:37:17.495Z,28.35
2022-11-10T14:40:04.308Z,29.27
2022-11-10T14:42:49.799Z,23.55
2022-11-10T14:45:35.422Z,23.25
2022-11-10T14:48:24.113Z,29.33
2022-11-10T14:51:18.540Z,26.08
2022-11-10T14:54:04.209Z,21.83
2022-11-10T14:56:49.923Z,75.38
2022-11-10T14:59:37.562Z,137.15
2022-11-10T15:02:23.090Z,130.52
2022-11-10T15:05:14.651Z,145.88
2022-11-10T15:08:02.929Z,124.40
2022-11-10T15:10:53.312Z,106.65
2022-11-10T15:13:39.652Z,94.78
2022-11-10T15:16:30.308Z,84.68
2022-11-10T15:19:36.445Z,55.42
2022-11-10T15:22:32.701Z,55.40
2022-11-10T15:25:22.281Z,84.97
2022-11-10T15:28:14.017Z,76.15
2022-11-10T15:31:05.786Z,94.53
2022-11-10T15:33:57.435Z,60.75
2022-11-10T15:36:42.738Z,67.70
2022-11-10T15:39:28.870Z,74.53
2022-11-10T15:42:23.871Z,81.00
2022-11-10T15:45:09.591Z,85.78
2022-11-10T15:47:56.263Z,71.00
2022-11-10T15:50:49.053Z,97.05
2022-11-10T15:53:38.719Z,90.50
2022-11-10T15:59:10.949Z,147.25
2022-11-10T16:01:56.583Z,139.02
2022-11-10T16:04:42.414Z,121.60
2022-11-10T16:07:27.998Z,94.55
2022-11-10T16:10:13.370Z,68.68
2022-11-10T16:12:58.863Z,50.63
2022-11-10T16:15:45.409Z,46.38
2022-11-10T16:18:31.492Z,56.30
2022-11-10T16:21:20.046Z,55.42
2022-11-10T16:24:05.564Z,58.30
2022-11-10T16:26:51.008Z,82.15
2022-11-10T16:29:36.617Z,94.75
2022-11-10T16:32:22.312Z,107.00
2022-11-10T16:35:13.769Z,93.55
2022-11-10T16:37:59.458Z,94.55
2022-11-10T16:40:46.130Z,100.60
2022-11-10T16:43:31.665Z,105.10
2022-11-10T16:46:23.393Z,59.30
2022-11-10T16:49:23.247Z,49.80
2022-11-10T16:52:15.351Z,44.00
2022-11-10T16:55:00.665Z,44.53
2022-11-10T16:57:46.161Z,46.35
2022-11-10T17:00:32.963Z,51.35
2022-11-10T17:03:26.273Z,51.55
2022-11-10T17:06:13.737Z,76.53
2022-11-10T17:09:08.128Z,101.60
2022-11-10T17:11:53.592Z,78.88
2022-11-10T17:14:39.036Z,102.10
2022-11-10T17:17:24.892Z,59.92
2022-11-10T17:20:27.710Z,39.00
2022-11-10T17:23:15.892Z,31.23
2022-11-10T17:26:01.999Z,34.00
2022-11-10T17:28:47.525Z,30.80
2022-11-10T17:31:34.092Z,28.52
2022-11-10T17:34:19.761Z,29.55
2022-11-10T17:37:05.903Z,41.00
2022-11-10T17:39:51.549Z,35.72
2022-11-10T17:42:39.151Z,28.33
2022-11-10T17:45:26.948Z,26.33
2022-11-10T17:48:12.727Z,28.48
2022-11-10T17:50:58.010Z,37.28
2022-11-10T17:53:43.696Z,38.63
2022-11-10T17:56:30.002Z,59.20
2022-11-10T17:59:15.235Z,48.00
2022-11-10T18:02:01.167Z,41.10
2022-11-10T18:04:46.838Z,54.55
2022-11-10T18:07:32.417Z,31.00
2022-11-10T18:10:18.616Z,28.58
2022-11-10T18:13:04.530Z,32.22
2022-11-10T18:15:50.516Z,31.85
2022-11-10T18:18:37.325Z,37.90
2022-11-10T18:21:23.041Z,40.58
2022-11-10T18:24:08.619Z,36.35
2022-11-10T18:26:53.815Z,37.80
2022-11-10T18:29:39.213Z,31.02
2022-11-10T18:32:24.956Z,42.38
2022-11-10T18:35:10.150Z,34.20
2022-11-10T18:37:55.361Z,35.45
2022-11-10T18:40:40.798Z,46.30
2022-11-10T18:43:26.246Z,39.67
2022-11-10T18:46:11.584Z,35.00
2022-11-10T18:48:57.397Z,31.77
2022-11-10T18:51:42.744Z,26.33
2022-11-10T18:54:28.094Z,34.92
2022-11-10T18:57:16.408Z,28.67
2022-11-10T19:00:02.197Z,27.75
2022-11-10T19:02:47.768Z,50.20
2022-11-10T19:05:33.389Z,45.92
2022-11-10T19:08:18.928Z,46.22
2022-11-10T19:11:09.621Z,43.45
2022-11-10T19:13:54.730Z,83.80
2022-11-10T19:16:40.118Z,84.78
2022-11-10T19:19:25.482Z,56.40
2022-11-10T19:22:11.166Z,43.28
2022-11-10T19:25:11.815Z,40.35
2022-11-10T19:27:58.260Z,45.38
2022-11-10T19:30:43.678Z,65.90
2022-11-10T19:33:34.111Z,51.50
2022-11-10T19:36:24.566Z,38.38
2022-11-10T19:39:10.219Z,42.28
2022-11-10T19:41:55.317Z,42.85
2022-11-10T19:44:40.626Z,99.28
2022-11-10T19:47:26.292Z,83.00
2022-11-10T19:50:11.464Z,56.88
2022-11-10T19:52:56.686Z,61.92
2022-11-10T19:55:42.045Z,63.22
2022-11-10T19:58:27.426Z,51.17
2022-11-10T20:01:14.357Z,49.40
2022-11-10T20:04:00.922Z,42.80
2022-11-10T20:06:46.564Z,51.97
2022-11-10T20:09:31.960Z,47.13
2022-11-10T20:12:17.372Z,58.53
2022-11-10T20:15:02.715Z,55.97
2022-11-10T20:17:48.299Z,59.55
2022-11-10T20:20:33.999Z,36.63
2022-11-10T20:23:19.458Z,35.40
2022-11-10T20:26:07.451Z,35.40
2022-11-10T20:28:53.248Z,34.40
2022-11-10T20:31:38.804Z,37.53
2022-11-10T20:34:24.268Z,27.20
2022-11-10T20:37:09.889Z,26.63
2022-11-10T20:39:55.203Z,28.17
2022-11-10T20:42:42.802Z,27.48
2022-11-10T20:45:28.733Z,28.48
2022-11-10T20:48:14.739Z,35.53
2022-11-10T20:51:01.015Z,28.10
2022-11-10T20:53:47.381Z,28.38
2022-11-10T20:56:32.393Z,32.50
2022-11-10T20:59:17.724Z,37.55
2022-11-10T21:02:03.266Z,37.28
2022-11-10T21:04:48.478Z,30.02
2022-11-10T21:07:33.911Z,28.00
2022-11-10T21:10:19.268Z,28.73
2022-11-10T21:13:05.390Z,31.00
2022-11-10T21:15:53.025Z,28.77
2022-11-10T21:18:38.304Z,32.05
2022-11-10T21:21:34.553Z,27.40
2022-11-10T21:24:20.630Z,28.48
2022-11-10T21:27:06.124Z,28.83
2022-11-10T21:29:52.014Z,31.45
2022-11-10T21:32:37.418Z,28.35
2022-11-10T21:35:23.126Z,34.45
2022-11-10T21:38:11.726Z,26.23
2022-11-10T21:40:57.880Z,30.25
2022-11-10T21:43:42.901Z,28.15
2022-11-10T21:46:28.235Z,29.73
2022-11-10T21:49:13.660Z,30.63
2022-11-10T21:51:58.943Z,33.00
2022-11-10T21:54:44.290Z,27.40
2022-11-10T21:57:29.650Z,31.98
2022-11-10T22:00:15.394Z,31.00
2022-11-10T22:03:05.829Z,28.58
2022-11-10T22:05:51.653Z,27.25
2022-11-10T22:08:38.333Z,29.15
2022-11-10T22:11:41.941Z,22.60
2022-11-10T22:14:45.303Z,25.70
2022-11-10T22:17:49.234Z,25.13
2022-11-10T22:20:34.737Z,24.90
2022-11-10T22:23:40.137Z,27.90
2022-11-10T22:26:25.590Z,26.15
2022-11-10T22:29:11.072Z,27.50
2022-11-10T22:31:57.016Z,28.75
2022-11-10T22:34:42.485Z,24.98
2022-11-10T22:37:33.171Z,28.05
2022-11-10T22:40:37.137Z,30.35
2022-11-10T22:43:40.681Z,27.50
2022-11-10T22:46:26.035Z,27.08
2022-11-10T22:49:16.027Z,26.67
2022-11-10T22:52:01.530Z,22.85
2022-11-10T22:54:46.665Z,25.80
2022-11-10T22:57:32.020Z,26.05
2022-11-10T23:00:17.832Z,23.77
2022-11-10T23:03:03.493Z,24.70
2022-11-10T23:05:56.032Z,25.92
2022-11-10T23:08:43.006Z,27.15
2022-11-10T23:11:30.727Z,31.55
2022-11-10T23:14:15.782Z,25.95
2022-11-10T23:17:01.209Z,28.08
2022-11-10T23:19:46.648Z,25.83
2022-11-10T23:22:32.195Z,27.50
2022-11-10T23:25:17.605Z,24.88
2022-11-10T23:28:02.932Z,25.55
2022-11-10T23:30:48.281Z,24.25
2022-11-10T23:33:34.562Z,24.95
2022-11-10T23:36:21.484Z,26.30
2022-11-10T23:39:06.923Z,27.77
2022-11-10T23:41:52.200Z,26.50
2022-11-10T23:44:37.624Z,23.15
2022-11-10T23:47:23.063Z,24.92
2022-11-10T23:50:09.019Z,21.77
2022-11-10T23:52:54.860Z,22.02
2022-11-10T23:55:40.834Z,25.63
2022-11-10T23:58:26.204Z,22.42
